sensor_id;sensor_type;location;lat;lon;timestamp;P1;durP1;ratioP1;P2;durP2;ratioP2
56005;SDS011;41888;44.696;10.522;2024-02-28T00:00:35;33.90;;;17.52;;
56005;SDS011;41888;44.696;10.522;2024-02-28T00:03:01;34.47;;;17.15;;
56005;SDS011;41888;44.696;10.522;2024-02-28T00:05:28;36.53;;;18.40;;
56005;SDS011;41888;44.696;10.522;2024-02-28T00:07:54;39.65;;;20.85;;
56005;SDS011;41888;44.696;10.522;2024-02-28T00:10:20;36.35;;;17.85;;
56005;SDS011;41888;44.696;10.522;2024-02-28T00:12:46;33.35;;;18.02;;
56005;SDS011;41888;44.696;10.522;2024-02-28T00:15:12;34.70;;;18.00;;
56005;SDS011;41888;44.696;10.522;2024-02-28T00:17:39;38.00;;;19.17;;
56005;SDS011;41888;44.696;10.522;2024-02-28T00:20:07;34.35;;;17.17;;
56005;SDS011;41888;44.696;10.522;2024-02-28T00:22:35;34.03;;;18.77;;
56005;SDS011;41888;44.696;10.522;2024-02-28T00:25:04;33.85;;;16.83;;
56005;SDS011;41888;44.696;10.522;2024-02-28T00:27:32;31.83;;;16.83;;
56005;SDS011;41888;44.696;10.522;2024-02-28T00:29:58;32.95;;;16.70;;
56005;SDS011;41888;44.696;10.522;2024-02-28T00:32:24;36.40;;;18.00;;
56005;SDS011;41888;44.696;10.522;2024-02-28T00:34:51;50.83;;;21.65;;
56005;SDS011;41888;44.696;10.522;2024-02-28T00:37:17;48.80;;;22.27;;
56005;SDS011;41888;44.696;10.522;2024-02-28T00:39:44;50.75;;;20.65;;
56005;SDS011;41888;44.696;10.522;2024-02-28T00:42:10;51.40;;;26.20;;
56005;SDS011;41888;44.696;10.522;2024-02-28T00:44:37;59.85;;;23.73;;
56005;SDS011;41888;44.696;10.522;2024-02-28T00:47:03;65.30;;;24.67;;
56005;SDS011;41888;44.696;10.522;2024-02-28T00:49:29;52.90;;;22.15;;
56005;SDS011;41888;44.696;10.522;2024-02-28T00:51:55;61.20;;;23.88;;
56005;SDS011;41888;44.696;10.522;2024-02-28T00:54:21;49.38;;;21.27;;
56005;SDS011;41888;44.696;10.522;2024-02-28T00:56:48;49.50;;;21.52;;
56005;SDS011;41888;44.696;10.522;2024-02-28T00:59:15;42.35;;;19.85;;
56005;SDS011;41888;44.696;10.522;2024-02-28T01:01:41;37.17;;;19.13;;
56005;SDS011;41888;44.696;10.522;2024-02-28T01:04:07;40.67;;;18.58;;
56005;SDS011;41888;44.696;10.522;2024-02-28T01:06:33;34.10;;;17.67;;
56005;SDS011;41888;44.696;10.522;2024-02-28T01:08:59;37.67;;;17.83;;
56005;SDS011;41888;44.696;10.522;2024-02-28T01:11:26;40.92;;;18.45;;
56005;SDS011;41888;44.696;10.522;2024-02-28T01:13:52;36.88;;;17.25;;
56005;SDS011;41888;44.696;10.522;2024-02-28T01:16:18;42.88;;;19.67;;
56005;SDS011;41888;44.696;10.522;2024-02-28T01:18:44;36.58;;;18.40;;
56005;SDS011;41888;44.696;10.522;2024-02-28T01:21:10;37.00;;;19.70;;
56005;SDS011;41888;44.696;10.522;2024-02-28T01:23:36;39.45;;;18.30;;
56005;SDS011;41888;44.696;10.522;2024-02-28T01:26:03;31.67;;;16.45;;
56005;SDS011;41888;44.696;10.522;2024-02-28T01:28:31;36.10;;;18.38;;
56005;SDS011;41888;44.696;10.522;2024-02-28T01:30:57;39.78;;;18.92;;
56005;SDS011;41888;44.696;10.522;2024-02-28T01:33:25;35.28;;;18.08;;
56005;SDS011;41888;44.696;10.522;2024-02-28T01:35:51;36.25;;;17.52;;
56005;SDS011;41888;44.696;10.522;2024-02-28T01:38:17;38.20;;;17.15;;
56005;SDS011;41888;44.696;10.522;2024-02-28T01:40:44;38.85;;;18.75;;
56005;SDS011;41888;44.696;10.522;2024-02-28T01:43:11;40.65;;;19.35;;
56005;SDS011;41888;44.696;10.522;2024-02-28T01:45:38;35.25;;;16.98;;
56005;SDS011;41888;44.696;10.522;2024-02-28T01:48:05;44.28;;;19.30;;
56005;SDS011;41888;44.696;10.522;2024-02-28T01:50:35;38.83;;;17.83;;
56005;SDS011;41888;44.696;10.522;2024-02-28T01:53:02;45.97;;;19.73;;
56005;SDS011;41888;44.696;10.522;2024-02-28T01:55:30;43.45;;;19.20;;
56005;SDS011;41888;44.696;10.522;2024-02-28T01:57:57;48.15;;;20.58;;
56005;SDS011;41888;44.696;10.522;2024-02-28T02:00:23;51.72;;;21.55;;
56005;SDS011;41888;44.696;10.522;2024-02-28T02:02:52;50.17;;;21.77;;
56005;SDS011;41888;44.696;10.522;2024-02-28T02:05:18;48.05;;;19.95;;
56005;SDS011;41888;44.696;10.522;2024-02-28T02:07:46;51.20;;;21.85;;
56005;SDS011;41888;44.696;10.522;2024-02-28T02:10:16;49.13;;;22.30;;
56005;SDS011;41888;44.696;10.522;2024-02-28T02:12:42;44.97;;;19.70;;
56005;SDS011;41888;44.696;10.522;2024-02-28T02:15:09;52.35;;;22.30;;
56005;SDS011;41888;44.696;10.522;2024-02-28T02:17:35;48.17;;;20.25;;
56005;SDS011;41888;44.696;10.522;2024-02-28T02:20:01;47.40;;;19.90;;
56005;SDS011;41888;44.696;10.522;2024-02-28T02:22:34;47.30;;;21.40;;
56005;SDS011;41888;44.696;10.522;2024-02-28T02:25:03;41.90;;;19.52;;
56005;SDS011;41888;44.696;10.522;2024-02-28T02:27:30;51.40;;;21.88;;
56005;SDS011;41888;44.696;10.522;2024-02-28T02:29:56;45.13;;;20.25;;
56005;SDS011;41888;44.696;10.522;2024-02-28T02:32:22;44.88;;;21.98;;
56005;SDS011;41888;44.696;10.522;2024-02-28T02:34:49;51.58;;;21.70;;
56005;SDS011;41888;44.696;10.522;2024-02-28T02:37:15;52.80;;;22.38;;
56005;SDS011;41888;44.696;10.522;2024-02-28T02:39:41;57.10;;;23.00;;
56005;SDS011;41888;44.696;10.522;2024-02-28T02:42:07;51.03;;;21.40;;
56005;SDS011;41888;44.696;10.522;2024-02-28T02:44:34;49.47;;;20.27;;
56005;SDS011;41888;44.696;10.522;2024-02-28T02:47:00;44.45;;;19.05;;
56005;SDS011;41888;44.696;10.522;2024-02-28T02:49:26;58.33;;;21.83;;
56005;SDS011;41888;44.696;10.522;2024-02-28T02:51:52;54.13;;;20.77;;
56005;SDS011;41888;44.696;10.522;2024-02-28T02:54:18;61.33;;;23.02;;
56005;SDS011;41888;44.696;10.522;2024-02-28T02:56:45;61.53;;;25.88;;
56005;SDS011;41888;44.696;10.522;2024-02-28T02:59:11;66.10;;;24.75;;
56005;SDS011;41888;44.696;10.522;2024-02-28T03:01:37;68.53;;;25.45;;
56005;SDS011;41888;44.696;10.522;2024-02-28T03:04:04;59.65;;;23.30;;
56005;SDS011;41888;44.696;10.522;2024-02-28T03:06:30;69.65;;;23.83;;
56005;SDS011;41888;44.696;10.522;2024-02-28T03:08:57;66.72;;;26.92;;
56005;SDS011;41888;44.696;10.522;2024-02-28T03:11:23;70.00;;;24.23;;
56005;SDS011;41888;44.696;10.522;2024-02-28T03:13:49;68.20;;;24.25;;
56005;SDS011;41888;44.696;10.522;2024-02-28T03:16:16;78.30;;;24.30;;
56005;SDS011;41888;44.696;10.522;2024-02-28T03:18:42;71.28;;;24.15;;
56005;SDS011;41888;44.696;10.522;2024-02-28T03:21:08;69.28;;;21.65;;
56005;SDS011;41888;44.696;10.522;2024-02-28T03:23:34;72.43;;;22.58;;
56005;SDS011;41888;44.696;10.522;2024-02-28T03:26:01;58.40;;;20.35;;
56005;SDS011;41888;44.696;10.522;2024-02-28T03:28:28;65.78;;;21.42;;
56005;SDS011;41888;44.696;10.522;2024-02-28T03:30:54;65.82;;;21.17;;
56005;SDS011;41888;44.696;10.522;2024-02-28T03:33:20;56.63;;;20.95;;
56005;SDS011;41888;44.696;10.522;2024-02-28T03:35:47;66.88;;;21.55;;
56005;SDS011;41888;44.696;10.522;2024-02-28T03:38:13;59.53;;;19.45;;
56005;SDS011;41888;44.696;10.522;2024-02-28T03:40:39;61.47;;;18.98;;
56005;SDS011;41888;44.696;10.522;2024-02-28T03:43:05;58.97;;;18.20;;
56005;SDS011;41888;44.696;10.522;2024-02-28T03:45:37;57.42;;;17.83;;
56005;SDS011;41888;44.696;10.522;2024-02-28T03:48:04;50.55;;;17.45;;
56005;SDS011;41888;44.696;10.522;2024-02-28T03:50:30;47.53;;;17.58;;
56005;SDS011;41888;44.696;10.522;2024-02-28T03:52:57;49.28;;;16.88;;
56005;SDS011;41888;44.696;10.522;2024-02-28T03:55:23;45.15;;;17.50;;
56005;SDS011;41888;44.696;10.522;2024-02-28T03:57:49;50.05;;;17.35;;
56005;SDS011;41888;44.696;10.522;2024-02-28T04:00:16;48.47;;;17.50;;
56005;SDS011;41888;44.696;10.522;2024-02-28T04:02:43;49.17;;;17.02;;
56005;SDS011;41888;44.696;10.522;2024-02-28T04:05:09;51.08;;;16.77;;
56005;SDS011;41888;44.696;10.522;2024-02-28T04:07:35;50.55;;;15.77;;
56005;SDS011;41888;44.696;10.522;2024-02-28T04:10:02;54.38;;;18.75;;
56005;SDS011;41888;44.696;10.522;2024-02-28T04:12:30;60.63;;;18.23;;
56005;SDS011;41888;44.696;10.522;2024-02-28T04:14:56;44.08;;;16.27;;
56005;SDS011;41888;44.696;10.522;2024-02-28T04:17:22;50.80;;;15.27;;
56005;SDS011;41888;44.696;10.522;2024-02-28T04:19:49;42.88;;;15.82;;
56005;SDS011;41888;44.696;10.522;2024-02-28T04:22:15;47.20;;;16.85;;
56005;SDS011;41888;44.696;10.522;2024-02-28T04:24:41;44.88;;;14.93;;
56005;SDS011;41888;44.696;10.522;2024-02-28T04:27:07;47.95;;;15.43;;
56005;SDS011;41888;44.696;10.522;2024-02-28T04:29:36;40.92;;;14.23;;
56005;SDS011;41888;44.696;10.522;2024-02-28T04:32:03;39.00;;;14.32;;
56005;SDS011;41888;44.696;10.522;2024-02-28T04:34:29;38.83;;;14.32;;
56005;SDS011;41888;44.696;10.522;2024-02-28T04:36:55;42.55;;;13.88;;
56005;SDS011;41888;44.696;10.522;2024-02-28T04:39:21;37.70;;;13.48;;
56005;SDS011;41888;44.696;10.522;2024-02-28T04:41:47;38.20;;;14.85;;
56005;SDS011;41888;44.696;10.522;2024-02-28T04:44:14;30.38;;;11.52;;
56005;SDS011;41888;44.696;10.522;2024-02-28T04:46:40;38.60;;;12.90;;
56005;SDS011;41888;44.696;10.522;2024-02-28T04:49:06;38.10;;;15.60;;
56005;SDS011;41888;44.696;10.522;2024-02-28T04:51:34;38.50;;;14.15;;
56005;SDS011;41888;44.696;10.522;2024-02-28T04:54:00;39.55;;;15.02;;
56005;SDS011;41888;44.696;10.522;2024-02-28T04:56:26;42.05;;;13.65;;
56005;SDS011;41888;44.696;10.522;2024-02-28T04:58:52;41.53;;;14.57;;
56005;SDS011;41888;44.696;10.522;2024-02-28T05:01:18;35.60;;;13.65;;
56005;SDS011;41888;44.696;10.522;2024-02-28T05:03:44;38.83;;;13.52;;
56005;SDS011;41888;44.696;10.522;2024-02-28T05:06:11;25.75;;;12.02;;
56005;SDS011;41888;44.696;10.522;2024-02-28T05:08:40;31.75;;;12.60;;
56005;SDS011;41888;44.696;10.522;2024-02-28T05:11:06;35.80;;;14.10;;
56005;SDS011;41888;44.696;10.522;2024-02-28T05:13:32;35.17;;;13.18;;
56005;SDS011;41888;44.696;10.522;2024-02-28T05:15:59;31.42;;;13.38;;
56005;SDS011;41888;44.696;10.522;2024-02-28T05:18:26;31.33;;;11.18;;
56005;SDS011;41888;44.696;10.522;2024-02-28T05:20:52;32.47;;;13.70;;
56005;SDS011;41888;44.696;10.522;2024-02-28T05:23:18;35.33;;;13.25;;
56005;SDS011;41888;44.696;10.522;2024-02-28T05:25:45;34.60;;;13.77;;
56005;SDS011;41888;44.696;10.522;2024-02-28T05:28:12;31.00;;;13.38;;
56005;SDS011;41888;44.696;10.522;2024-02-28T05:30:38;34.63;;;12.85;;
56005;SDS011;41888;44.696;10.522;2024-02-28T05:33:04;33.85;;;13.68;;
56005;SDS011;41888;44.696;10.522;2024-02-28T05:35:30;34.45;;;12.68;;
56005;SDS011;41888;44.696;10.522;2024-02-28T05:37:56;35.17;;;13.32;;
56005;SDS011;41888;44.696;10.522;2024-02-28T05:40:23;29.00;;;12.93;;
56005;SDS011;41888;44.696;10.522;2024-02-28T05:42:49;33.70;;;13.05;;
56005;SDS011;41888;44.696;10.522;2024-02-28T05:45:15;30.05;;;12.25;;
56005;SDS011;41888;44.696;10.522;2024-02-28T05:47:41;30.52;;;11.88;;
56005;SDS011;41888;44.696;10.522;2024-02-28T05:50:07;33.40;;;12.18;;
56005;SDS011;41888;44.696;10.522;2024-02-28T05:52:35;32.08;;;12.02;;
56005;SDS011;41888;44.696;10.522;2024-02-28T05:55:01;30.50;;;11.75;;
56005;SDS011;41888;44.696;10.522;2024-02-28T05:57:28;32.58;;;13.02;;
56005;SDS011;41888;44.696;10.522;2024-02-28T05:59:54;26.70;;;11.57;;
56005;SDS011;41888;44.696;10.522;2024-02-28T06:02:20;29.65;;;14.30;;
56005;SDS011;41888;44.696;10.522;2024-02-28T06:04:46;33.53;;;11.35;;
56005;SDS011;41888;44.696;10.522;2024-02-28T06:07:12;28.95;;;11.13;;
56005;SDS011;41888;44.696;10.522;2024-02-28T06:09:38;30.67;;;13.90;;
56005;SDS011;41888;44.696;10.522;2024-02-28T06:12:05;39.65;;;12.57;;
56005;SDS011;41888;44.696;10.522;2024-02-28T06:14:31;30.63;;;12.73;;
56005;SDS011;41888;44.696;10.522;2024-02-28T06:16:57;28.00;;;11.98;;
56005;SDS011;41888;44.696;10.522;2024-02-28T06:19:23;28.77;;;11.20;;
56005;SDS011;41888;44.696;10.522;2024-02-28T06:21:50;29.88;;;11.35;;
56005;SDS011;41888;44.696;10.522;2024-02-28T06:24:16;28.20;;;13.10;;
56005;SDS011;41888;44.696;10.522;2024-02-28T06:26:42;31.85;;;14.23;;
56005;SDS011;41888;44.696;10.522;2024-02-28T06:29:08;31.35;;;13.30;;
56005;SDS011;41888;44.696;10.522;2024-02-28T06:31:34;28.77;;;12.48;;
56005;SDS011;41888;44.696;10.522;2024-02-28T06:34:01;34.08;;;12.20;;
56005;SDS011;41888;44.696;10.522;2024-02-28T06:36:28;30.80;;;11.20;;
56005;SDS011;41888;44.696;10.522;2024-02-28T06:38:55;29.52;;;11.65;;
56005;SDS011;41888;44.696;10.522;2024-02-28T06:41:21;25.92;;;11.70;;
56005;SDS011;41888;44.696;10.522;2024-02-28T06:43:47;24.88;;;11.07;;
56005;SDS011;41888;44.696;10.522;2024-02-28T06:46:13;26.35;;;10.40;;
56005;SDS011;41888;44.696;10.522;2024-02-28T06:48:39;27.45;;;11.52;;
56005;SDS011;41888;44.696;10.522;2024-02-28T06:51:06;27.30;;;9.95;;
56005;SDS011;41888;44.696;10.522;2024-02-28T06:53:32;28.00;;;10.52;;
56005;SDS011;41888;44.696;10.522;2024-02-28T06:55:58;18.75;;;10.27;;
56005;SDS011;41888;44.696;10.522;2024-02-28T06:58:25;27.33;;;10.73;;
56005;SDS011;41888;44.696;10.522;2024-02-28T07:00:52;27.67;;;12.48;;
56005;SDS011;41888;44.696;10.522;2024-02-28T07:03:18;24.80;;;10.52;;
56005;SDS011;41888;44.696;10.522;2024-02-28T07:05:44;23.27;;;11.07;;
56005;SDS011;41888;44.696;10.522;2024-02-28T07:08:11;25.98;;;10.90;;
56005;SDS011;41888;44.696;10.522;2024-02-28T07:10:37;22.75;;;10.57;;
56005;SDS011;41888;44.696;10.522;2024-02-28T07:13:08;27.17;;;10.13;;
56005;SDS011;41888;44.696;10.522;2024-02-28T07:15:35;23.25;;;8.98;;
56005;SDS011;41888;44.696;10.522;2024-02-28T07:18:01;30.05;;;10.25;;
56005;SDS011;41888;44.696;10.522;2024-02-28T07:20:27;24.58;;;9.68;;
56005;SDS011;41888;44.696;10.522;2024-02-28T07:22:53;26.65;;;9.63;;
56005;SDS011;41888;44.696;10.522;2024-02-28T07:25:19;20.70;;;8.88;;
56005;SDS011;41888;44.696;10.522;2024-02-28T07:27:47;17.38;;;8.57;;
56005;SDS011;41888;44.696;10.522;2024-02-28T07:30:13;21.50;;;9.65;;
56005;SDS011;41888;44.696;10.522;2024-02-28T07:32:39;21.25;;;9.55;;
56005;SDS011;41888;44.696;10.522;2024-02-28T07:35:05;25.08;;;10.18;;
56005;SDS011;41888;44.696;10.522;2024-02-28T07:37:32;27.15;;;11.60;;
56005;SDS011;41888;44.696;10.522;2024-02-28T07:39:58;21.35;;;11.98;;
56005;SDS011;41888;44.696;10.522;2024-02-28T07:42:24;25.02;;;11.52;;
56005;SDS011;41888;44.696;10.522;2024-02-28T07:44:51;23.48;;;11.32;;
56005;SDS011;41888;44.696;10.522;2024-02-28T07:47:21;27.88;;;10.75;;
56005;SDS011;41888;44.696;10.522;2024-02-28T07:49:48;23.75;;;10.18;;
56005;SDS011;41888;44.696;10.522;2024-02-28T07:52:15;19.75;;;8.68;;
56005;SDS011;41888;44.696;10.522;2024-02-28T07:54:42;22.05;;;10.43;;
56005;SDS011;41888;44.696;10.522;2024-02-28T07:57:08;22.15;;;10.02;;
56005;SDS011;41888;44.696;10.522;2024-02-28T07:59:41;22.52;;;10.05;;
56005;SDS011;41888;44.696;10.522;2024-02-28T08:02:07;20.60;;;10.40;;
56005;SDS011;41888;44.696;10.522;2024-02-28T08:04:36;26.42;;;9.68;;
56005;SDS011;41888;44.696;10.522;2024-02-28T08:07:02;22.88;;;9.35;;
56005;SDS011;41888;44.696;10.522;2024-02-28T08:09:29;17.95;;;9.38;;
56005;SDS011;41888;44.696;10.522;2024-02-28T08:11:55;22.90;;;9.65;;
56005;SDS011;41888;44.696;10.522;2024-02-28T08:14:23;23.83;;;9.82;;
56005;SDS011;41888;44.696;10.522;2024-02-28T08:16:49;22.80;;;9.75;;
56005;SDS011;41888;44.696;10.522;2024-02-28T08:19:16;24.02;;;10.02;;
56005;SDS011;41888;44.696;10.522;2024-02-28T08:21:42;27.33;;;11.15;;
56005;SDS011;41888;44.696;10.522;2024-02-28T08:24:09;22.35;;;10.27;;
56005;SDS011;41888;44.696;10.522;2024-02-28T08:26:35;21.38;;;9.20;;
56005;SDS011;41888;44.696;10.522;2024-02-28T08:29:01;21.35;;;10.43;;
56005;SDS011;41888;44.696;10.522;2024-02-28T08:31:28;22.45;;;9.73;;
56005;SDS011;41888;44.696;10.522;2024-02-28T08:33:54;20.77;;;10.13;;
56005;SDS011;41888;44.696;10.522;2024-02-28T08:36:20;21.52;;;9.90;;
56005;SDS011;41888;44.696;10.522;2024-02-28T08:38:47;25.67;;;9.68;;
56005;SDS011;41888;44.696;10.522;2024-02-28T08:41:13;20.08;;;9.52;;
56005;SDS011;41888;44.696;10.522;2024-02-28T08:43:39;20.85;;;9.60;;
56005;SDS011;41888;44.696;10.522;2024-02-28T08:46:06;26.60;;;9.18;;
56005;SDS011;41888;44.696;10.522;2024-02-28T08:48:32;21.60;;;10.88;;
56005;SDS011;41888;44.696;10.522;2024-02-28T08:50:59;20.10;;;10.50;;
56005;SDS011;41888;44.696;10.522;2024-02-28T08:53:26;23.20;;;9.88;;
56005;SDS011;41888;44.696;10.522;2024-02-28T08:55:52;26.77;;;10.35;;
56005;SDS011;41888;44.696;10.522;2024-02-28T08:58:18;23.33;;;9.45;;
56005;SDS011;41888;44.696;10.522;2024-02-28T09:00:44;22.27;;;9.10;;
56005;SDS011;41888;44.696;10.522;2024-02-28T09:03:10;21.63;;;9.27;;
56005;SDS011;41888;44.696;10.522;2024-02-28T09:05:36;25.48;;;9.32;;
56005;SDS011;41888;44.696;10.522;2024-02-28T09:08:03;22.50;;;10.45;;
56005;SDS011;41888;44.696;10.522;2024-02-28T09:10:30;18.95;;;9.20;;
56005;SDS011;41888;44.696;10.522;2024-02-28T09:12:59;24.58;;;10.35;;
56005;SDS011;41888;44.696;10.522;2024-02-28T09:15:25;28.92;;;10.10;;
56005;SDS011;41888;44.696;10.522;2024-02-28T09:17:51;22.92;;;8.68;;
56005;SDS011;41888;44.696;10.522;2024-02-28T09:20:17;17.10;;;8.25;;
56005;SDS011;41888;44.696;10.522;2024-02-28T09:22:43;28.35;;;8.70;;
56005;SDS011;41888;44.696;10.522;2024-02-28T09:25:10;24.63;;;7.65;;
56005;SDS011;41888;44.696;10.522;2024-02-28T09:27:36;20.08;;;8.13;;
56005;SDS011;41888;44.696;10.522;2024-02-28T09:30:02;19.83;;;8.25;;
56005;SDS011;41888;44.696;10.522;2024-02-28T09:32:29;18.77;;;7.28;;
56005;SDS011;41888;44.696;10.522;2024-02-28T09:34:55;21.90;;;8.18;;
56005;SDS011;41888;44.696;10.522;2024-02-28T09:37:21;18.38;;;7.55;;
56005;SDS011;41888;44.696;10.522;2024-02-28T09:39:50;19.10;;;8.52;;
56005;SDS011;41888;44.696;10.522;2024-02-28T09:42:16;21.70;;;8.50;;
56005;SDS011;41888;44.696;10.522;2024-02-28T09:44:43;21.70;;;9.13;;
56005;SDS011;41888;44.696;10.522;2024-02-28T09:47:09;18.20;;;10.05;;
56005;SDS011;41888;44.696;10.522;2024-02-28T09:49:36;24.33;;;9.50;;
56005;SDS011;41888;44.696;10.522;2024-02-28T09:52:03;24.48;;;10.55;;
56005;SDS011;41888;44.696;10.522;2024-02-28T09:54:29;32.45;;;12.27;;
56005;SDS011;41888;44.696;10.522;2024-02-28T09:56:55;21.23;;;10.05;;
56005;SDS011;41888;44.696;10.522;2024-02-28T09:59:22;30.38;;;10.43;;
56005;SDS011;41888;44.696;10.522;2024-02-28T10:01:56;26.05;;;11.23;;
56005;SDS011;41888;44.696;10.522;2024-02-28T10:04:25;24.95;;;10.55;;
56005;SDS011;41888;44.696;10.522;2024-02-28T10:06:55;24.05;;;10.50;;
56005;SDS011;41888;44.696;10.522;2024-02-28T10:09:22;33.20;;;10.82;;
56005;SDS011;41888;44.696;10.522;2024-02-28T10:11:48;28.27;;;10.73;;
56005;SDS011;41888;44.696;10.522;2024-02-28T10:14:17;21.77;;;10.23;;
56005;SDS011;41888;44.696;10.522;2024-02-28T10:16:44;20.35;;;9.82;;
56005;SDS011;41888;44.696;10.522;2024-02-28T10:19:11;26.67;;;10.20;;
56005;SDS011;41888;44.696;10.522;2024-02-28T10:21:37;21.10;;;9.93;;
56005;SDS011;41888;44.696;10.522;2024-02-28T10:24:04;19.77;;;10.75;;
56005;SDS011;41888;44.696;10.522;2024-02-28T10:26:31;23.38;;;10.32;;
56005;SDS011;41888;44.696;10.522;2024-02-28T10:29:03;22.00;;;10.20;;
56005;SDS011;41888;44.696;10.522;2024-02-28T10:31:32;25.10;;;10.52;;
56005;SDS011;41888;44.696;10.522;2024-02-28T10:33:58;19.40;;;9.15;;
56005;SDS011;41888;44.696;10.522;2024-02-28T10:36:26;25.35;;;9.73;;
56005;SDS011;41888;44.696;10.522;2024-02-28T10:38:57;19.23;;;9.20;;
56005;SDS011;41888;44.696;10.522;2024-02-28T10:41:25;16.83;;;9.32;;
56005;SDS011;41888;44.696;10.522;2024-02-28T10:43:53;20.42;;;9.07;;
56005;SDS011;41888;44.696;10.522;2024-02-28T10:46:19;19.48;;;10.05;;
56005;SDS011;41888;44.696;10.522;2024-02-28T10:48:46;22.02;;;9.93;;
56005;SDS011;41888;44.696;10.522;2024-02-28T10:51:15;15.70;;;9.05;;
56005;SDS011;41888;44.696;10.522;2024-02-28T10:53:45;18.90;;;8.68;;
56005;SDS011;41888;44.696;10.522;2024-02-28T10:56:14;17.58;;;9.05;;
56005;SDS011;41888;44.696;10.522;2024-02-28T10:58:50;23.58;;;9.70;;
56005;SDS011;41888;44.696;10.522;2024-02-28T11:01:17;17.60;;;8.35;;
56005;SDS011;41888;44.696;10.522;2024-02-28T11:03:44;17.77;;;9.02;;
56005;SDS011;41888;44.696;10.522;2024-02-28T11:06:17;16.85;;;7.45;;
56005;SDS011;41888;44.696;10.522;2024-02-28T11:08:46;21.75;;;9.45;;
56005;SDS011;41888;44.696;10.522;2024-02-28T11:11:14;16.65;;;9.20;;
56005;SDS011;41888;44.696;10.522;2024-02-28T11:13:54;21.52;;;11.07;;
56005;SDS011;41888;44.696;10.522;2024-02-28T11:16:34;21.20;;;11.02;;
56005;SDS011;41888;44.696;10.522;2024-02-28T11:19:01;19.85;;;10.60;;
56005;SDS011;41888;44.696;10.522;2024-02-28T11:21:29;22.42;;;11.40;;
56005;SDS011;41888;44.696;10.522;2024-02-28T11:24:00;23.55;;;14.05;;
56005;SDS011;41888;44.696;10.522;2024-02-28T11:26:27;21.38;;;12.50;;
56005;SDS011;41888;44.696;10.522;2024-02-28T11:28:54;19.33;;;10.68;;
56005;SDS011;41888;44.696;10.522;2024-02-28T11:31:20;21.45;;;12.25;;
56005;SDS011;41888;44.696;10.522;2024-02-28T11:33:47;20.17;;;10.65;;
56005;SDS011;41888;44.696;10.522;2024-02-28T11:36:13;15.30;;;9.45;;
56005;SDS011;41888;44.696;10.522;2024-02-28T11:38:40;18.60;;;10.05;;
56005;SDS011;41888;44.696;10.522;2024-02-28T11:41:07;14.85;;;8.38;;
56005;SDS011;41888;44.696;10.522;2024-02-28T11:43:33;16.10;;;8.40;;
56005;SDS011;41888;44.696;10.522;2024-02-28T11:46:00;15.20;;;8.38;;
56005;SDS011;41888;44.696;10.522;2024-02-28T11:48:26;19.02;;;11.93;;
56005;SDS011;41888;44.696;10.522;2024-02-28T11:50:53;21.38;;;11.90;;
56005;SDS011;41888;44.696;10.522;2024-02-28T11:53:19;17.60;;;10.98;;
56005;SDS011;41888;44.696;10.522;2024-02-28T11:55:46;16.77;;;10.68;;
56005;SDS011;41888;44.696;10.522;2024-02-28T11:58:13;17.40;;;8.80;;
56005;SDS011;41888;44.696;10.522;2024-02-28T12:00:49;15.63;;;9.38;;
56005;SDS011;41888;44.696;10.522;2024-02-28T12:03:25;13.65;;;8.38;;
56005;SDS011;41888;44.696;10.522;2024-02-28T12:05:52;12.48;;;7.82;;
56005;SDS011;41888;44.696;10.522;2024-02-28T12:08:20;12.75;;;8.05;;
56005;SDS011;41888;44.696;10.522;2024-02-28T12:10:49;12.95;;;8.00;;
56005;SDS011;41888;44.696;10.522;2024-02-28T12:13:16;14.10;;;8.40;;
56005;SDS011;41888;44.696;10.522;2024-02-28T12:15:43;14.18;;;8.90;;
56005;SDS011;41888;44.696;10.522;2024-02-28T12:18:11;14.13;;;8.70;;
56005;SDS011;41888;44.696;10.522;2024-02-28T12:20:39;11.48;;;7.30;;
56005;SDS011;41888;44.696;10.522;2024-02-28T12:23:05;12.25;;;8.25;;
56005;SDS011;41888;44.696;10.522;2024-02-28T12:25:33;12.98;;;8.27;;
56005;SDS011;41888;44.696;10.522;2024-02-28T12:28:05;13.35;;;8.43;;
56005;SDS011;41888;44.696;10.522;2024-02-28T12:30:38;11.90;;;8.43;;
56005;SDS011;41888;44.696;10.522;2024-02-28T12:33:07;13.02;;;7.90;;
56005;SDS011;41888;44.696;10.522;2024-02-28T12:35:33;12.80;;;8.40;;
56005;SDS011;41888;44.696;10.522;2024-02-28T12:38:00;13.18;;;8.43;;
56005;SDS011;41888;44.696;10.522;2024-02-28T12:40:26;12.82;;;8.95;;
56005;SDS011;41888;44.696;10.522;2024-02-28T12:42:52;15.05;;;8.15;;
56005;SDS011;41888;44.696;10.522;2024-02-28T12:45:18;11.82;;;8.65;;
56005;SDS011;41888;44.696;10.522;2024-02-28T12:47:44;19.25;;;9.40;;
56005;SDS011;41888;44.696;10.522;2024-02-28T12:50:11;13.38;;;7.90;;
56005;SDS011;41888;44.696;10.522;2024-02-28T12:52:37;12.77;;;8.13;;
56005;SDS011;41888;44.696;10.522;2024-02-28T12:55:03;8.98;;;5.18;;
56005;SDS011;41888;44.696;10.522;2024-02-28T12:57:30;9.68;;;4.88;;
56005;SDS011;41888;44.696;10.522;2024-02-28T12:59:56;7.30;;;4.75;;
56005;SDS011;41888;44.696;10.522;2024-02-28T13:02:22;7.22;;;3.72;;
56005;SDS011;41888;44.696;10.522;2024-02-28T13:04:48;7.38;;;5.22;;
56005;SDS011;41888;44.696;10.522;2024-02-28T13:07:15;10.13;;;4.60;;
56005;SDS011;41888;44.696;10.522;2024-02-28T13:09:41;8.15;;;4.32;;
56005;SDS011;41888;44.696;10.522;2024-02-28T13:12:07;6.63;;;4.32;;
56005;SDS011;41888;44.696;10.522;2024-02-28T13:14:33;8.00;;;5.13;;
56005;SDS011;41888;44.696;10.522;2024-02-28T13:17:00;7.82;;;4.20;;
56005;SDS011;41888;44.696;10.522;2024-02-28T13:19:26;10.80;;;5.15;;
56005;SDS011;41888;44.696;10.522;2024-02-28T13:21:52;8.05;;;4.97;;
56005;SDS011;41888;44.696;10.522;2024-02-28T13:24:18;7.93;;;5.40;;
56005;SDS011;41888;44.696;10.522;2024-02-28T13:26:44;10.48;;;5.57;;
56005;SDS011;41888;44.696;10.522;2024-02-28T13:29:10;9.73;;;5.78;;
56005;SDS011;41888;44.696;10.522;2024-02-28T13:31:36;13.65;;;5.97;;
56005;SDS011;41888;44.696;10.522;2024-02-28T13:34:03;13.13;;;5.88;;
56005;SDS011;41888;44.696;10.522;2024-02-28T13:36:29;11.68;;;6.07;;
56005;SDS011;41888;44.696;10.522;2024-02-28T13:39:01;13.90;;;7.70;;
56005;SDS011;41888;44.696;10.522;2024-02-28T13:41:28;13.70;;;6.60;;
56005;SDS011;41888;44.696;10.522;2024-02-28T13:43:54;10.25;;;6.03;;
56005;SDS011;41888;44.696;10.522;2024-02-28T13:46:20;12.77;;;8.32;;
56005;SDS011;41888;44.696;10.522;2024-02-28T13:48:47;17.23;;;8.20;;
56005;SDS011;41888;44.696;10.522;2024-02-28T13:51:13;14.93;;;8.50;;
56005;SDS011;41888;44.696;10.522;2024-02-28T13:53:40;13.00;;;7.30;;
56005;SDS011;41888;44.696;10.522;2024-02-28T13:56:06;13.15;;;7.28;;
56005;SDS011;41888;44.696;10.522;2024-02-28T13:58:33;15.88;;;6.63;;
56005;SDS011;41888;44.696;10.522;2024-02-28T14:00:59;12.45;;;7.97;;
56005;SDS011;41888;44.696;10.522;2024-02-28T14:03:25;11.43;;;5.93;;
56005;SDS011;41888;44.696;10.522;2024-02-28T14:05:51;12.50;;;6.50;;
56005;SDS011;41888;44.696;10.522;2024-02-28T14:08:17;9.25;;;5.60;;
56005;SDS011;41888;44.696;10.522;2024-02-28T14:10:44;15.20;;;7.22;;